createdAt,value
2019-03-17T00:00:50.245Z,2.33
2019-03-17T00:03:37.546Z,2.00
2019-03-17T00:06:07.756Z,2.47
2019-03-17T00:08:35.340Z,2.10
2019-03-17T00:11:03.388Z,2.07
2019-03-17T00:13:31.428Z,2.97
2019-03-17T00:15:59.208Z,2.63
2019-03-17T00:18:27.238Z,1.80
2019-03-17T00:20:55.383Z,2.10
2019-03-17T00:23:23.427Z,2.17
2019-03-17T00:25:51.500Z,2.10
2019-03-17T00:28:19.548Z,2.80
2019-03-17T00:30:47.604Z,2.80
2019-03-17T00:33:15.552Z,3.47
2019-03-17T00:35:43.533Z,1.80
2019-03-17T00:38:11.552Z,2.10
2019-03-17T00:40:39.600Z,1.83
2019-03-17T00:43:07.655Z,2.23
2019-03-17T00:45:37.327Z,1.77
2019-03-17T00:48:05.385Z,2.47
2019-03-17T00:50:33.427Z,1.90
2019-03-17T00:53:01.279Z,1.80
2019-03-17T00:55:29.259Z,2.33
2019-03-17T00:57:59.618Z,2.63
2019-03-17T01:00:27.773Z,1.97
2019-03-17T01:02:55.919Z,1.90
2019-03-17T01:05:24.062Z,3.10
2019-03-17T01:07:52.125Z,2.20
2019-03-17T01:10:20.168Z,2.23
2019-03-17T01:12:48.324Z,2.43
2019-03-17T01:15:16.275Z,1.87
2019-03-17T01:17:44.419Z,1.80
2019-03-17T01:20:12.456Z,2.27
2019-03-17T01:22:40.535Z,1.90
2019-03-17T01:25:08.576Z,2.30
2019-03-17T01:27:36.622Z,1.90
2019-03-17T01:30:04.779Z,2.27
2019-03-17T01:32:32.671Z,1.67
2019-03-17T01:35:09.213Z,2.30
2019-03-17T01:37:30.519Z,1.60
2019-03-17T01:39:58.556Z,1.60
2019-03-17T01:42:26.595Z,1.67
2019-03-17T01:44:54.563Z,1.63
2019-03-17T01:47:22.464Z,1.87
2019-03-17T01:49:50.439Z,1.90
2019-03-17T01:52:18.267Z,2.00
2019-03-17T01:54:46.040Z,1.90
2019-03-17T01:57:13.895Z,2.97
2019-03-17T01:59:41.835Z,1.63
2019-03-17T02:02:10.457Z,3.37
2019-03-17T02:04:38.296Z,1.80
2019-03-17T02:07:06.069Z,1.87
2019-03-17T02:09:34.214Z,2.27
2019-03-17T02:12:02.256Z,1.60
2019-03-17T02:14:30.350Z,1.63
2019-03-17T02:16:58.385Z,2.43
2019-03-17T02:19:26.416Z,2.07
2019-03-17T02:21:54.577Z,2.00
2019-03-17T02:24:22.429Z,2.03
2019-03-17T02:26:50.397Z,1.83
2019-03-17T02:29:18.435Z,1.10
2019-03-17T02:31:46.488Z,1.50
2019-03-17T02:34:14.537Z,4.77
2019-03-17T02:36:42.714Z,2.57
2019-03-17T02:39:10.735Z,2.33
2019-03-17T02:41:38.584Z,2.17
2019-03-17T02:44:06.523Z,1.43
2019-03-17T02:46:34.688Z,1.63
2019-03-17T02:49:02.764Z,2.53
2019-03-17T02:51:30.855Z,1.40
2019-03-17T02:53:58.874Z,3.07
2019-03-17T02:56:26.892Z,1.37
2019-03-17T02:58:54.718Z,2.63
2019-03-17T03:01:22.770Z,1.83
2019-03-17T03:03:50.832Z,2.87
2019-03-17T03:06:18.886Z,2.97
2019-03-17T03:08:46.920Z,1.83
2019-03-17T03:11:14.774Z,1.63
2019-03-17T03:13:42.957Z,2.03
2019-03-17T03:16:10.846Z,2.20
2019-03-17T03:18:38.696Z,1.50
2019-03-17T03:21:06.768Z,1.60
2019-03-17T03:23:34.824Z,1.43
2019-03-17T03:26:02.759Z,1.30
2019-03-17T03:28:30.912Z,2.63
2019-03-17T03:30:58.961Z,2.27
2019-03-17T03:33:27.054Z,3.17
2019-03-17T03:36:10.220Z,1.60
2019-03-17T03:38:25.045Z,1.73
2019-03-17T03:40:53.288Z,1.80
2019-03-17T03:43:21.219Z,1.50
2019-03-17T03:45:49.263Z,2.47
2019-03-17T03:48:17.311Z,2.60
2019-03-17T03:50:45.369Z,1.97
2019-03-17T03:53:13.434Z,1.97
2019-03-17T03:55:42.350Z,3.33
2019-03-17T03:58:10.537Z,3.13
2019-03-17T04:00:38.609Z,1.37
2019-03-17T04:03:06.648Z,2.27
2019-03-17T04:05:34.609Z,2.60
2019-03-17T04:08:02.918Z,1.90
2019-03-17T04:10:30.863Z,2.53
2019-03-17T04:12:58.702Z,1.73
2019-03-17T04:15:26.780Z,1.27
2019-03-17T04:17:54.835Z,2.80
2019-03-17T04:20:22.899Z,2.17
2019-03-17T04:22:50.944Z,2.03
2019-03-17T04:25:19.019Z,2.97
2019-03-17T04:27:47.068Z,2.67
2019-03-17T04:30:15.127Z,1.73
2019-03-17T04:32:42.964Z,1.60
2019-03-17T04:35:11.006Z,1.57
2019-03-17T04:37:38.854Z,3.13
2019-03-17T04:40:06.943Z,1.83
2019-03-17T04:42:34.772Z,1.87
2019-03-17T04:45:02.726Z,1.90
2019-03-17T04:47:30.789Z,2.00
2019-03-17T04:49:58.846Z,2.90
2019-03-17T04:52:26.909Z,2.40
2019-03-17T04:54:54.988Z,2.07
2019-03-17T04:57:22.853Z,3.47
2019-03-17T04:59:50.969Z,1.60
2019-03-17T05:02:19.178Z,2.47
2019-03-17T05:04:47.246Z,4.30
2019-03-17T05:07:15.287Z,2.50
2019-03-17T05:09:43.145Z,2.97
2019-03-17T05:12:11.028Z,2.83
2019-03-17T05:14:38.963Z,1.90
2019-03-17T05:17:06.928Z,2.40
2019-03-17T05:19:34.771Z,3.33
2019-03-17T05:22:02.631Z,2.97
2019-03-17T05:24:30.584Z,1.97
2019-03-17T05:26:58.735Z,2.07
2019-03-17T05:29:26.597Z,4.63
2019-03-17T05:31:54.352Z,2.30
2019-03-17T05:34:22.520Z,3.87
2019-03-17T05:36:50.656Z,2.33
2019-03-17T05:39:18.708Z,3.77
2019-03-17T05:41:46.469Z,3.53
2019-03-17T05:44:14.443Z,2.47
2019-03-17T05:46:42.393Z,3.43
2019-03-17T05:49:10.331Z,2.63
2019-03-17T05:51:38.183Z,3.77
2019-03-17T05:54:05.924Z,1.90
2019-03-17T05:56:33.875Z,4.10
2019-03-17T05:59:01.828Z,2.10
2019-03-17T06:01:29.774Z,2.37
2019-03-17T06:03:57.732Z,1.20
2019-03-17T06:06:25.587Z,3.30
2019-03-17T06:08:53.867Z,1.00
2019-03-17T06:11:21.806Z,2.50
2019-03-17T06:13:51.227Z,3.10
2019-03-17T06:16:19.467Z,1.33
2019-03-17T06:18:47.384Z,3.77
2019-03-17T06:21:15.261Z,1.33
2019-03-17T06:23:43.323Z,2.47
2019-03-17T06:26:12.675Z,1.90
2019-03-17T06:28:41.033Z,2.83
2019-03-17T06:31:09.084Z,1.57
2019-03-17T06:33:37.166Z,2.37
2019-03-17T06:36:05.108Z,2.83
2019-03-17T06:38:33.071Z,1.30
2019-03-17T06:41:00.962Z,3.00
2019-03-17T06:43:30.724Z,0.80
2019-03-17T06:45:58.792Z,2.10
2019-03-17T06:48:26.556Z,2.03
2019-03-17T06:50:54.596Z,4.70
2019-03-17T06:53:22.352Z,1.87
2019-03-17T06:55:50.124Z,1.33
2019-03-17T06:58:18.035Z,4.23
2019-03-17T07:00:45.996Z,2.23
2019-03-17T07:03:14.052Z,2.90
2019-03-17T07:05:41.925Z,1.87
2019-03-17T07:08:10.004Z,5.30
2019-03-17T07:10:37.877Z,1.30
2019-03-17T07:13:05.747Z,1.90
2019-03-17T07:15:33.944Z,2.37
2019-03-17T07:18:02.611Z,2.70
2019-03-17T07:20:30.994Z,2.60
2019-03-17T07:22:58.973Z,3.77
2019-03-17T07:25:26.941Z,2.07
2019-03-17T07:27:54.911Z,1.37
2019-03-17T07:30:23.132Z,5.63
2019-03-17T07:32:54.121Z,1.57
2019-03-17T07:35:22.068Z,2.77
2019-03-17T07:37:56.640Z,2.43
2019-03-17T07:40:20.079Z,2.97
2019-03-17T07:42:48.160Z,2.23
2019-03-17T07:45:16.171Z,1.67
2019-03-17T07:47:44.163Z,3.53
2019-03-17T07:50:12.236Z,3.03
2019-03-17T07:52:40.176Z,1.17
2019-03-17T07:55:08.048Z,3.80
2019-03-17T07:57:35.939Z,2.17
2019-03-17T08:00:04.022Z,2.53
2019-03-17T08:02:32.033Z,3.30
2019-03-17T08:05:00.019Z,2.17
2019-03-17T08:07:28.051Z,1.03
2019-03-17T08:09:55.924Z,4.33
2019-03-17T08:12:23.989Z,1.67
2019-03-17T08:14:52.081Z,2.80
2019-03-17T08:17:20.047Z,0.87
2019-03-17T08:19:48.039Z,1.00
2019-03-17T08:22:16.002Z,1.43
2019-03-17T08:24:43.999Z,1.93
2019-03-17T08:27:12.100Z,1.90
2019-03-17T08:29:40.235Z,1.10
2019-03-17T08:32:08.249Z,0.57
2019-03-17T08:34:37.343Z,0.40
2019-03-17T08:37:05.459Z,3.30
2019-03-17T08:39:33.416Z,2.10
2019-03-17T08:42:01.440Z,0.83
2019-03-17T08:44:29.524Z,0.90
2019-03-17T08:46:57.549Z,0.50
2019-03-17T08:49:25.628Z,1.63
2019-03-17T08:51:53.773Z,1.83
2019-03-17T08:54:21.738Z,0.63
2019-03-17T08:56:49.892Z,0.60
2019-03-17T08:59:17.924Z,3.33
2019-03-17T09:01:47.616Z,0.77
2019-03-17T09:04:15.860Z,0.87
2019-03-17T09:06:43.695Z,3.67
2019-03-17T09:09:11.749Z,2.27
2019-03-17T09:11:39.827Z,0.73
2019-03-17T09:14:07.892Z,0.77
2019-03-17T09:16:35.922Z,0.50
2019-03-17T09:19:03.779Z,1.37
2019-03-17T09:21:31.822Z,1.47
2019-03-17T09:24:00.032Z,1.70
2019-03-17T09:26:28.275Z,1.03
2019-03-17T09:28:56.283Z,2.90
2019-03-17T09:31:24.515Z,0.90
2019-03-17T09:33:52.656Z,2.10
2019-03-17T09:36:20.784Z,1.67
2019-03-17T09:38:48.926Z,0.97
2019-03-17T09:41:16.992Z,2.33
2019-03-17T09:43:45.079Z,0.30
2019-03-17T09:46:12.908Z,1.03
2019-03-17T09:48:40.815Z,0.63
2019-03-17T09:51:08.868Z,0.83
2019-03-17T09:53:36.915Z,0.53
2019-03-17T09:56:04.855Z,0.73
2019-03-17T09:58:32.827Z,0.90
2019-03-17T10:01:00.884Z,0.60
2019-03-17T10:03:28.956Z,1.70
2019-03-17T10:05:57.101Z,1.40
2019-03-17T10:08:25.062Z,2.07
2019-03-17T10:10:53.135Z,2.67
2019-03-17T10:13:21.170Z,3.03
2019-03-17T10:15:49.301Z,1.03
2019-03-17T10:18:17.352Z,3.27
2019-03-17T10:20:45.415Z,3.03
2019-03-17T10:23:13.557Z,2.37
2019-03-17T10:25:41.542Z,2.03
2019-03-17T10:28:09.632Z,1.77
2019-03-17T10:30:37.718Z,0.93
2019-03-17T10:33:05.918Z,3.27
2019-03-17T10:35:33.895Z,2.57
2019-03-17T10:38:02.204Z,2.23
2019-03-17T10:40:30.260Z,3.07
2019-03-17T10:42:58.359Z,5.30
2019-03-17T10:45:26.430Z,4.23
2019-03-17T10:47:54.759Z,1.90
2019-03-17T10:50:22.903Z,3.07
2019-03-17T10:52:50.988Z,1.93
2019-03-17T10:55:19.055Z,3.70
2019-03-17T10:57:47.192Z,4.23
2019-03-17T11:00:15.167Z,2.97
2019-03-17T11:02:43.288Z,2.57
2019-03-17T11:05:11.323Z,3.27
2019-03-17T11:07:39.248Z,2.60
2019-03-17T11:10:07.484Z,5.07
2019-03-17T11:12:35.447Z,2.43
2019-03-17T11:15:03.628Z,4.10
2019-03-17T11:17:31.651Z,4.50
2019-03-17T11:19:59.723Z,2.87
2019-03-17T11:22:27.791Z,2.97
2019-03-17T11:24:55.887Z,2.87
2019-03-17T11:27:23.796Z,3.40
2019-03-17T11:29:52.019Z,2.97
2019-03-17T11:32:20.144Z,3.63
2019-03-17T11:34:48.124Z,4.17
2019-03-17T11:37:16.229Z,3.07
2019-03-17T11:39:44.403Z,3.80
2019-03-17T11:42:12.408Z,4.13
2019-03-17T11:44:40.534Z,3.83
2019-03-17T11:47:08.722Z,4.53
2019-03-17T11:49:36.975Z,3.23
2019-03-17T11:52:04.968Z,4.20
2019-03-17T11:54:34.595Z,3.23
2019-03-17T11:57:02.678Z,3.20
2019-03-17T11:59:30.652Z,3.23
2019-03-17T12:01:58.909Z,4.33
2019-03-17T12:04:26.900Z,2.00
2019-03-17T12:06:54.873Z,4.17
2019-03-17T12:09:29.208Z,1.90
2019-03-17T12:11:54.951Z,1.93
2019-03-17T12:14:22.981Z,2.40
2019-03-17T12:16:52.104Z,2.60
2019-03-17T12:19:20.440Z,2.27
2019-03-17T12:21:48.356Z,3.63
2019-03-17T12:24:16.428Z,1.60
2019-03-17T12:26:44.540Z,2.50
2019-03-17T12:29:12.511Z,2.10
2019-03-17T12:31:40.482Z,2.90
2019-03-17T12:34:08.528Z,2.53
2019-03-17T12:36:36.487Z,2.33
2019-03-17T12:39:05.491Z,2.97
2019-03-17T12:41:33.471Z,2.40
2019-03-17T12:44:01.437Z,3.07
2019-03-17T12:46:29.404Z,3.30
2019-03-17T12:48:57.376Z,2.50
2019-03-17T12:51:25.456Z,2.83
2019-03-17T12:53:53.547Z,2.30
2019-03-17T12:56:23.136Z,2.20
2019-03-17T12:58:53.820Z,2.60
2019-03-17T13:01:21.816Z,1.50
2019-03-17T13:03:49.689Z,1.63
2019-03-17T13:06:17.760Z,2.60
2019-03-17T13:09:05.044Z,2.60
2019-03-17T13:11:32.898Z,3.10
2019-03-17T13:14:00.948Z,3.60
2019-03-17T13:16:29.016Z,3.60
2019-03-17T13:18:57.065Z,4.03
2019-03-17T13:21:24.856Z,4.03
2019-03-17T13:23:52.700Z,4.27
2019-03-17T13:26:20.652Z,5.17
2019-03-17T13:28:48.892Z,5.60
2019-03-17T13:31:16.854Z,4.77
2019-03-17T13:33:44.692Z,5.90
2019-03-17T13:36:12.640Z,5.70
2019-03-17T13:38:40.864Z,5.40
2019-03-17T13:41:08.684Z,7.10
2019-03-17T13:43:36.468Z,7.97
2019-03-17T13:46:04.409Z,8.93
2019-03-17T13:48:32.548Z,9.93
2019-03-17T13:51:00.616Z,8.90
2019-03-17T13:53:28.372Z,8.03
2019-03-17T13:55:56.368Z,10.57
2019-03-17T13:58:24.423Z,8.00
2019-03-17T14:00:52.488Z,8.73
2019-03-17T14:03:40.094Z,12.20
2019-03-17T14:06:08.447Z,9.20
2019-03-17T14:08:38.184Z,9.60
2019-03-17T14:11:06.141Z,7.57
2019-03-17T14:13:34.337Z,7.00
2019-03-17T14:16:02.493Z,7.63
2019-03-17T14:18:30.488Z,8.03
2019-03-17T14:20:58.532Z,7.50
2019-03-17T14:23:26.532Z,7.50
2019-03-17T14:25:54.668Z,8.23
2019-03-17T14:28:22.737Z,7.80
2019-03-17T14:30:50.680Z,7.47
2019-03-17T14:33:18.565Z,11.50
2019-03-17T14:35:46.772Z,9.50
2019-03-17T14:38:14.736Z,8.57
2019-03-17T14:40:52.842Z,10.60
2019-03-17T14:43:12.512Z,7.77
2019-03-17T14:45:40.392Z,8.47
2019-03-17T14:48:08.555Z,8.43
2019-03-17T14:50:36.644Z,9.27
2019-03-17T14:53:04.728Z,10.80
2019-03-17T14:55:32.792Z,11.70
2019-03-17T14:58:00.872Z,13.77
2019-03-17T15:00:28.730Z,8.47
2019-03-17T15:02:56.684Z,12.47
2019-03-17T15:05:25.445Z,10.23
2019-03-17T15:07:53.496Z,9.13
2019-03-17T15:10:21.453Z,8.30
2019-03-17T15:12:49.397Z,8.33
2019-03-17T15:15:17.475Z,7.57
2019-03-17T15:17:45.443Z,6.90
2019-03-17T15:20:14.164Z,5.43
2019-03-17T15:22:41.979Z,5.93
2019-03-17T15:25:09.920Z,5.00
2019-03-17T15:27:37.780Z,5.13
2019-03-17T15:30:06.824Z,5.43
2019-03-17T15:32:34.811Z,7.30
2019-03-17T15:35:02.794Z,5.40
2019-03-17T15:37:30.557Z,5.37
2019-03-17T15:39:58.649Z,5.10
2019-03-17T15:42:26.527Z,7.23
2019-03-17T15:44:54.472Z,5.77
2019-03-17T15:47:22.882Z,4.93
2019-03-17T15:49:50.749Z,7.70
2019-03-17T15:52:18.687Z,7.03
2019-03-17T15:54:46.496Z,5.97
2019-03-17T15:57:14.543Z,7.43
2019-03-17T15:59:42.295Z,7.20
2019-03-17T16:02:10.133Z,6.57
2019-03-17T16:04:38.208Z,5.17
2019-03-17T16:07:06.058Z,9.37
2019-03-17T16:09:34.035Z,6.13
2019-03-17T16:12:01.934Z,9.90
2019-03-17T16:14:29.869Z,7.97
2019-03-17T16:16:57.816Z,7.50
2019-03-17T16:19:25.677Z,6.90
2019-03-17T16:21:53.744Z,7.00
2019-03-17T16:24:23.138Z,9.87
2019-03-17T16:26:51.093Z,6.47
2019-03-17T16:29:18.879Z,8.27
2019-03-17T16:31:46.916Z,6.57
2019-03-17T16:34:14.678Z,8.87
2019-03-17T16:36:42.619Z,11.57
2019-03-17T16:39:10.489Z,9.20
2019-03-17T16:41:43.313Z,7.83
2019-03-17T16:44:08.022Z,5.37
2019-03-17T16:46:35.944Z,8.03
2019-03-17T16:49:03.822Z,7.47
2019-03-17T16:51:31.846Z,7.67
2019-03-17T16:54:00.095Z,10.60
2019-03-17T16:56:28.270Z,9.50
2019-03-17T16:58:56.161Z,10.07
2019-03-17T17:01:24.113Z,10.43
2019-03-17T17:03:51.988Z,7.83
2019-03-17T17:06:19.971Z,10.13
2019-03-17T17:08:48.026Z,8.20
2019-03-17T17:11:16.932Z,6.03
2019-03-17T17:13:45.091Z,6.57
2019-03-17T17:16:13.133Z,8.53
2019-03-17T17:18:40.993Z,7.67
2019-03-17T17:21:08.919Z,6.13
2019-03-17T17:23:36.673Z,7.23
2019-03-17T17:26:05.304Z,6.27
2019-03-17T17:28:33.472Z,8.20
2019-03-17T17:31:01.240Z,7.23
2019-03-17T17:33:29.098Z,11.43
2019-03-17T17:35:57.061Z,9.53
2019-03-17T17:38:25.108Z,9.43
2019-03-17T17:40:53.469Z,4.10
2019-03-17T17:43:21.617Z,7.10
2019-03-17T17:45:49.664Z,8.00
2019-03-17T17:48:17.711Z,9.67
2019-03-17T17:50:45.577Z,5.80
2019-03-17T17:53:13.626Z,7.73
2019-03-17T17:55:41.691Z,6.93
2019-03-17T17:58:09.732Z,5.23
2019-03-17T18:00:39.821Z,6.20
2019-03-17T18:03:07.580Z,8.53
2019-03-17T18:05:35.524Z,4.47
2019-03-17T18:08:03.641Z,7.70
2019-03-17T18:10:31.613Z,7.47
2019-03-17T18:12:59.683Z,9.00
2019-03-17T18:15:27.657Z,9.97
2019-03-17T18:17:55.604Z,4.07
2019-03-17T18:20:23.567Z,6.20
2019-03-17T18:22:51.660Z,13.57
2019-03-17T18:25:19.745Z,5.63
2019-03-17T18:27:47.804Z,4.50
2019-03-17T18:30:15.679Z,7.10
2019-03-17T18:32:43.433Z,4.93
2019-03-17T18:35:11.479Z,7.23
2019-03-17T18:37:39.742Z,4.40
2019-03-17T18:40:08.395Z,4.63
2019-03-17T18:42:36.296Z,4.70
2019-03-17T18:45:04.651Z,7.47
2019-03-17T18:47:32.740Z,7.20
2019-03-17T18:50:00.833Z,6.37
2019-03-17T18:52:28.843Z,4.30
2019-03-17T18:54:56.739Z,6.13
2019-03-17T18:57:24.797Z,7.03
2019-03-17T18:59:52.862Z,8.37
2019-03-17T19:02:20.823Z,7.80
2019-03-17T19:04:48.593Z,5.77
2019-03-17T19:07:16.688Z,6.80
2019-03-17T19:09:44.752Z,6.50
2019-03-17T19:12:12.707Z,5.53
2019-03-17T19:14:40.667Z,8.77
2019-03-17T19:17:08.664Z,5.60
2019-03-17T19:19:36.628Z,4.67
2019-03-17T19:22:04.579Z,4.67
2019-03-17T19:24:32.623Z,5.73
2019-03-17T19:27:00.579Z,4.73
2019-03-17T19:29:28.780Z,8.23
2019-03-17T19:31:56.707Z,7.40
2019-03-17T19:34:24.583Z,6.63
2019-03-17T19:36:52.648Z,5.33
2019-03-17T19:39:20.613Z,4.50
2019-03-17T19:41:48.685Z,5.57
2019-03-17T19:44:16.682Z,5.80
2019-03-17T19:46:44.558Z,2.63
2019-03-17T19:49:14.184Z,6.03
2019-03-17T19:51:42.283Z,7.00
2019-03-17T19:54:10.352Z,3.70
2019-03-17T19:56:38.348Z,6.30
2019-03-17T19:59:06.216Z,5.80
2019-03-17T20:01:34.236Z,6.73
2019-03-17T20:04:02.323Z,5.30
2019-03-17T20:06:30.385Z,6.40
2019-03-17T20:08:58.131Z,3.87
2019-03-17T20:11:26.196Z,4.83
2019-03-17T20:13:54.256Z,6.03
2019-03-17T20:16:22.025Z,4.77
2019-03-17T20:18:49.964Z,6.00
2019-03-17T20:21:17.820Z,4.23
2019-03-17T20:23:45.730Z,11.53
2019-03-17T20:26:13.683Z,6.27
2019-03-17T20:28:41.560Z,3.87
2019-03-17T20:31:09.552Z,3.40
2019-03-17T20:33:37.620Z,3.13
2019-03-17T20:36:05.736Z,5.03
2019-03-17T20:38:33.797Z,4.63
2019-03-17T20:41:01.736Z,5.43
2019-03-17T20:43:34.998Z,3.47
2019-03-17T20:45:59.485Z,7.03
2019-03-17T20:48:27.353Z,3.67
2019-03-17T20:50:55.315Z,7.00
2019-03-17T20:53:23.375Z,5.53
2019-03-17T20:55:51.229Z,2.77
2019-03-17T20:58:19.220Z,3.83
2019-03-17T21:00:46.984Z,4.77
2019-03-17T21:03:14.754Z,2.40
2019-03-17T21:05:42.598Z,3.17
2019-03-17T21:08:10.539Z,5.03
2019-03-17T21:10:38.488Z,4.07
2019-03-17T21:13:06.512Z,4.87
2019-03-17T21:15:34.393Z,3.53
2019-03-17T21:18:02.245Z,1.83
2019-03-17T21:20:30.436Z,8.27
2019-03-17T21:22:58.384Z,5.30
2019-03-17T21:25:26.274Z,4.57
2019-03-17T21:27:54.211Z,5.17
2019-03-17T21:30:22.086Z,3.53
2019-03-17T21:32:49.985Z,3.37
2019-03-17T21:35:17.849Z,6.90
2019-03-17T21:37:45.748Z,3.00
2019-03-17T21:40:13.799Z,2.87
2019-03-17T21:42:41.748Z,4.33
2019-03-17T21:45:09.799Z,4.83
2019-03-17T21:47:37.765Z,7.57
2019-03-17T21:50:25.347Z,7.13
2019-03-17T21:52:53.412Z,3.40
2019-03-17T21:55:21.528Z,4.10
2019-03-17T21:57:49.607Z,3.40
2019-03-17T22:00:17.763Z,3.40
2019-03-17T22:02:45.708Z,3.53
2019-03-17T22:05:13.926Z,3.37
2019-03-17T22:07:49.379Z,5.70
2019-03-17T22:10:11.928Z,3.00
2019-03-17T22:12:39.900Z,2.17
2019-03-17T22:15:08.505Z,3.87
2019-03-17T22:17:36.586Z,6.10
2019-03-17T22:20:04.760Z,4.70
2019-03-17T22:22:32.703Z,4.10
2019-03-17T22:25:00.565Z,5.63
2019-03-17T22:27:28.508Z,5.47
2019-03-17T22:29:56.648Z,5.50
2019-03-17T22:32:24.721Z,2.50
2019-03-17T22:34:52.767Z,4.80
2019-03-17T22:37:20.619Z,1.93
2019-03-17T22:39:48.579Z,4.77
2019-03-17T22:42:16.528Z,3.97
2019-03-17T22:44:44.399Z,6.40
2019-03-17T22:47:12.392Z,4.27
2019-03-17T22:49:40.246Z,6.63
2019-03-17T22:52:08.315Z,4.93
2019-03-17T22:54:36.066Z,4.87
2019-03-17T22:57:04.041Z,3.53
2019-03-17T22:59:32.304Z,3.37
2019-03-17T23:02:00.342Z,3.03
2019-03-17T23:04:28.418Z,6.77
2019-03-17T23:06:56.511Z,6.20
2019-03-17T23:09:24.536Z,6.03
2019-03-17T23:11:52.681Z,6.40
2019-03-17T23:14:40.064Z,3.83
2019-03-17T23:17:07.936Z,5.80
2019-03-17T23:19:35.883Z,5.83
2019-03-17T23:22:03.962Z,5.90
2019-03-17T23:24:32.067Z,5.13
2019-03-17T23:27:00.020Z,3.80
2019-03-17T23:29:28.167Z,4.27
2019-03-17T23:31:56.240Z,6.10
2019-03-17T23:34:24.288Z,4.37
2019-03-17T23:36:52.353Z,2.33
2019-03-17T23:39:20.188Z,5.47
2019-03-17T23:41:48.173Z,5.97
2019-03-17T23:44:16.249Z,9.37
2019-03-17T23:46:44.292Z,5.67
2019-03-17T23:49:12.352Z,3.43
2019-03-17T23:51:40.500Z,4.37
2019-03-17T23:54:08.570Z,6.97
2019-03-17T23:56:36.769Z,6.73
2019-03-17T23:59:04.647Z,9.93
